Oceanus — WXAQ — position and weather

sailwx.info

Track history (hours):
 
Tides and Currents Weather Stations Pressure Air Temp Water Temp Dewpoint Dewpoint Depression Visibility Wind Speed Wind Dir Waves Ship Positions

Oceanographic research ship Oceanus (USA)

Detailed information on ship capabilities available from University of Delaware's Ocean Information Center and ARCUS's ALIAS (Arctic Logistics Information and Support) project.

Owner: Oregon State University, Newport, OR. More information available from US FCC via Universal Licensing System.

Last reported at 2017-Aug-21 21:26 UTC. Time now 2017-Aug-21 21:42 UTC.
Position N 44°26' W 124°42'.

Length 23 m; draft 7.2 m.

Type: Other ship. MMSI: 367977000.

Date/timePositionNaut miles runAvg speedWind from/ knotsBaromVisibWave heightAir tempDewpointWater temp
2017-Aug-21 21:26N 44°26' W 124°42'0 0.7
2017-Aug-21 20:53N 44°26' W 124°41'1 0.7
2017-Aug-21 19:56N 44°27' W 124°41'0 1.1
2017-Aug-21 19:30N 44°26' W 124°41'0 0.1
2017-Aug-21 18:58N 44°26' W 124°41'1 1.2
2017-Aug-21 18:27N 44°26' W 124°41'0 0.6
2017-Aug-21 17:44N 44°26' W 124°41'0 0.9
2017-Aug-21 17:10N 44°26' W 124°41'0 1.9
2017-Aug-21 16:59N 44°26' W 124°41'0 0.2
2017-Aug-21 16:17N 44°26' W 124°41'0 0.3
2017-Aug-21 15:30N 44°26' W 124°41'1 0.9
2017-Aug-21 14:55N 44°26' W 124°41'0 0.9
2017-Aug-21 14:30N 44°26' W 124°41'0 0.3
2017-Aug-21 13:50N 44°26' W 124°41'0 1.1
2017-Aug-21 13:30N 44°26' W 124°41'0 0.4
2017-Aug-21 13:00N 44°26' W 124°40'1 2.1
2017-Aug-21 12:30N 44°27' W 124°40'1 1.7
2017-Aug-21 11:52N 44°26' W 124°40'1 3.0
2017-Aug-21 11:30N 44°27' W 124°39'1 1.4
2017-Aug-21 10:59N 44°27' W 124°40'1 1.5
2017-Aug-21 10:30N 44°27' W 124°39'1 2.2
2017-Aug-21 10:00N 44°28' W 124°39'1 2.0
2017-Aug-21 09:29N 44°27' W 124°38'1 2.6
2017-Aug-21 08:59N 44°28' W 124°37'0 0.7
2017-Aug-21 08:30N 44°28' W 124°37'0 0.3
2017-Aug-21 08:00N 44°28' W 124°37'1 1.0
2017-Aug-21 07:30N 44°28' W 124°37'0 0.4
2017-Aug-21 06:59N 44°28' W 124°37'0 0.7
2017-Aug-21 06:28N 44°28' W 124°37'0 0.5
2017-Aug-21 06:00N 44°29' W 124°37'1 0.6
2017-Aug-21 05:08N 44°29' W 124°37'0 1.7
2017-Aug-21 04:58N 44°29' W 124°37'1 2.1
2017-Aug-21 04:29N 44°28' W 124°37'1 2.5
2017-Aug-21 03:59N 44°29' W 124°37'1 1.3
2017-Aug-21 03:30N 44°30' W 124°37'1 1.3
2017-Aug-21 02:57N 44°29' W 124°37'0 0.4
2017-Aug-21 01:58N 44°29' W 124°36'0 0.5
2017-Aug-21 01:25N 44°29' W 124°36'2 0.5
2017-Aug-20 22:29N 44°30' W 124°35'1 0.5
2017-Aug-20 21:00N 44°31' W 124°35'0 0.5
2017-Aug-20 20:17N 44°31' W 124°35'0 0.4
2017-Aug-20 20:00N 44°31' W 124°35'0 0.3
2017-Aug-20 19:29N 44°32' W 124°35'0 0.2
2017-Aug-20 18:59N 44°32' W 124°34'0 0.2
2017-Aug-20 18:23N 44°32' W 124°34'0 0.3
2017-Aug-20 18:00N 44°32' W 124°34'0 0.1
2017-Aug-20 17:30N 44°32' W 124°34'0 0.2
2017-Aug-20 16:53N 44°32' W 124°35'0 0.2
2017-Aug-20 16:30N 44°32' W 124°35'0 0.4
2017-Aug-20 16:00N 44°32' W 124°34'5 8.9
2017-Aug-20 15:28N 44°37' W 124°35'5 9.9
2017-Aug-20 14:59N 44°42' W 124°36'510.2
2017-Aug-20 14:27N 44°47' W 124°34'510.3
2017-Aug-20 13:59N 44°51' W 124°31'510.5
2017-Aug-20 13:30N 44°55' W 124°27'510.5
2017-Aug-20 13:00N 44°60' W 124°23'4 7.5
2017-Aug-20 12:30N 45°03' W 124°20'4 6.5
2017-Aug-20 11:57N 45°06' W 124°19'511.5
2017-Aug-20 11:30N 45°11' W 124°21'611.2
2017-Aug-20 10:59N 45°17' W 124°23'511.0
2017-Aug-20 10:30N 45°22' W 124°25'510.8
2017-Aug-20 10:00N 45°27' W 124°27'510.8
2017-Aug-20 09:30N 45°33' W 124°29'611.1
2017-Aug-20 09:00N 45°38' W 124°31'611.5
2017-Aug-20 08:30N 45°43' W 124°33'511.0
2017-Aug-20 08:00N 45°48' W 124°36'611.1
2017-Aug-20 07:30N 45°53' W 124°41'611.5
2017-Aug-20 07:00N 45°58' W 124°44'611.6
2017-Aug-20 06:30N 46°04' W 124°47'611.4
2017-Aug-20 06:00N 46°09' W 124°49'611.3
2017-Aug-20 05:30N 46°15' W 124°52'611.1
2017-Aug-20 05:00N 46°20' W 124°52'611.4
2017-Aug-20 04:30N 46°26' W 124°54'611.2
2017-Aug-20 04:00N 46°31' W 124°56'611.2
2017-Aug-20 03:30N 46°37' W 124°57'611.5
2017-Aug-20 03:00N 46°42' W 124°58'611.9
2017-Aug-20 02:30N 46°48' W 124°59'611.7
2017-Aug-20 02:00N 46°54' W 125°01'611.8
2017-Aug-20 01:30N 46°60' W 125°03'811.5
2017-Aug-20 00:48N 47°08' W 125°06'9211.3
2017-Aug-19 16:41N 48°37' W 125°38'210.7
2017-Aug-19 16:30N 48°38' W 125°39'5 9.5
2017-Aug-19 16:00N 48°43' W 125°36'3 6.4
2017-Aug-19 15:29N 48°44' W 125°31'1 1.2
2017-Aug-19 15:00N 48°43' W 125°30'1 0.5
2017-Aug-19 14:00N 48°43' W 125°31'4 7.4
2017-Aug-19 13:30N 48°43' W 125°37'4 7.3
2017-Aug-19 13:00N 48°45' W 125°42'1 2.3
2017-Aug-19 12:30N 48°45' W 125°40'6 9.9
2017-Aug-19 11:56N 48°45' W 125°32'410.0
2017-Aug-19 11:30N 48°45' W 125°25'5 9.1
2017-Aug-19 11:00N 48°45' W 125°18'5 9.2
2017-Aug-19 10:30N 48°46' W 125°25'5 9.7
2017-Aug-19 10:00N 48°46' W 125°32'5 9.9
2017-Aug-19 09:30N 48°46' W 125°40'5 9.3
2017-Aug-19 09:00N 48°48' W 125°47'5 9.8
2017-Aug-19 08:30N 48°48' W 125°39'510.1
2017-Aug-19 08:00N 48°48' W 125°31'4 8.0
2017-Aug-19 07:30N 48°49' W 125°25'5 9.8
2017-Aug-19 07:00N 48°49' W 125°33'510.2
2017-Aug-19 06:30N 48°49' W 125°41'510.0
2017-Aug-19 06:00N 48°49' W 125°48'2 3.2
2017-Aug-19 05:30N 48°51' W 125°48'5 9.6
2017-Aug-19 05:00N 48°51' W 125°41'5 9.4
2017-Aug-19 04:30N 48°51' W 125°34'2 4.6
2017-Aug-19 04:00N 48°52' W 125°31'510.5
2017-Aug-19 03:30N 48°52' W 125°39'510.4
2017-Aug-19 03:00N 48°52' W 125°47'510.3
2017-Aug-19 02:31N 48°52' W 125°55'611.5
2017-Aug-19 02:00N 48°56' W 126°02'611.5
2017-Aug-19 01:27N 49°00' W 126°09'511.4
2017-Aug-19 01:00N 49°04' W 126°15'1211.0
2017-Aug-18 23:57N 49°12' W 126°28'510.8
2017-Aug-18 23:30N 49°15' W 126°33'510.8
2017-Aug-18 23:00N 49°18' W 126°39'811.1
2017-Aug-18 22:16N 49°23' W 126°49'311.3
2017-Aug-18 22:00N 49°25' W 126°53'  
Track history (hours):
 
Tides and Currents Weather Stations Pressure Air Temp Water Temp Dewpoint Dewpoint Depression Visibility Wind Speed Wind Dir Waves Ship Positions

Oceanographic research ship Oceanus (USA)

Detailed information on ship capabilities available from University of Delaware's Ocean Information Center and ARCUS's ALIAS (Arctic Logistics Information and Support) project.

Owner: Oregon State University, Newport, OR. More information available from US FCC via Universal Licensing System.

Last reported at 2017-Aug-21 21:26 UTC. Time now 2017-Aug-21 21:42 UTC.
Position N 44°26' W 124°42'.

Length 23 m; draft 7.2 m.

Type: Other ship. MMSI: 367977000.

Date/timePositionNaut miles runAvg speedWind from/ knotsBaromVisibWave heightAir tempDewpointWater temp
2017-Aug-21 21:26N 44°26' W 124°42'0 0.7
2017-Aug-21 20:53N 44°26' W 124°41'1 0.7
2017-Aug-21 19:56N 44°27' W 124°41'0 1.1
2017-Aug-21 19:30N 44°26' W 124°41'0 0.1
2017-Aug-21 18:58N 44°26' W 124°41'1 1.2
2017-Aug-21 18:27N 44°26' W 124°41'0 0.6
2017-Aug-21 17:44N 44°26' W 124°41'0 0.9
2017-Aug-21 17:10N 44°26' W 124°41'0 1.9
2017-Aug-21 16:59N 44°26' W 124°41'0 0.2
2017-Aug-21 16:17N 44°26' W 124°41'0 0.3
2017-Aug-21 15:30N 44°26' W 124°41'1 0.9
2017-Aug-21 14:55N 44°26' W 124°41'0 0.9
2017-Aug-21 14:30N 44°26' W 124°41'0 0.3
2017-Aug-21 13:50N 44°26' W 124°41'0 1.1
2017-Aug-21 13:30N 44°26' W 124°41'0 0.4
2017-Aug-21 13:00N 44°26' W 124°40'1 2.1
2017-Aug-21 12:30N 44°27' W 124°40'1 1.7
2017-Aug-21 11:52N 44°26' W 124°40'1 3.0
2017-Aug-21 11:30N 44°27' W 124°39'1 1.4
2017-Aug-21 10:59N 44°27' W 124°40'1 1.5
2017-Aug-21 10:30N 44°27' W 124°39'1 2.2
2017-Aug-21 10:00N 44°28' W 124°39'1 2.0
2017-Aug-21 09:29N 44°27' W 124°38'1 2.6
2017-Aug-21 08:59N 44°28' W 124°37'0 0.7
2017-Aug-21 08:30N 44°28' W 124°37'0 0.3
2017-Aug-21 08:00N 44°28' W 124°37'1 1.0
2017-Aug-21 07:30N 44°28' W 124°37'0 0.4
2017-Aug-21 06:59N 44°28' W 124°37'0 0.7
2017-Aug-21 06:28N 44°28' W 124°37'0 0.5
2017-Aug-21 06:00N 44°29' W 124°37'1 0.6
2017-Aug-21 05:08N 44°29' W 124°37'0 1.7
2017-Aug-21 04:58N 44°29' W 124°37'1 2.1
2017-Aug-21 04:29N 44°28' W 124°37'1 2.5
2017-Aug-21 03:59N 44°29' W 124°37'1 1.3
2017-Aug-21 03:30N 44°30' W 124°37'1 1.3
2017-Aug-21 02:57N 44°29' W 124°37'0 0.4
2017-Aug-21 01:58N 44°29' W 124°36'0 0.5
2017-Aug-21 01:25N 44°29' W 124°36'2 0.5
2017-Aug-20 22:29N 44°30' W 124°35'1 0.5
2017-Aug-20 21:00N 44°31' W 124°35'0 0.5
2017-Aug-20 20:17N 44°31' W 124°35'0 0.4
2017-Aug-20 20:00N 44°31' W 124°35'0 0.3
2017-Aug-20 19:29N 44°32' W 124°35'0 0.2
2017-Aug-20 18:59N 44°32' W 124°34'0 0.2
2017-Aug-20 18:23N 44°32' W 124°34'0 0.3
2017-Aug-20 18:00N 44°32' W 124°34'0 0.1
2017-Aug-20 17:30N 44°32' W 124°34'0 0.2
2017-Aug-20 16:53N 44°32' W 124°35'0 0.2
2017-Aug-20 16:30N 44°32' W 124°35'0 0.4
2017-Aug-20 16:00N 44°32' W 124°34'5 8.9
2017-Aug-20 15:28N 44°37' W 124°35'5 9.9
2017-Aug-20 14:59N 44°42' W 124°36'510.2
2017-Aug-20 14:27N 44°47' W 124°34'510.3
2017-Aug-20 13:59N 44°51' W 124°31'510.5
2017-Aug-20 13:30N 44°55' W 124°27'510.5
2017-Aug-20 13:00N 44°60' W 124°23'4 7.5
2017-Aug-20 12:30N 45°03' W 124°20'4 6.5
2017-Aug-20 11:57N 45°06' W 124°19'511.5
2017-Aug-20 11:30N 45°11' W 124°21'611.2
2017-Aug-20 10:59N 45°17' W 124°23'511.0
2017-Aug-20 10:30N 45°22' W 124°25'510.8
2017-Aug-20 10:00N 45°27' W 124°27'510.8
2017-Aug-20 09:30N 45°33' W 124°29'611.1
2017-Aug-20 09:00N 45°38' W 124°31'611.5
2017-Aug-20 08:30N 45°43' W 124°33'511.0
2017-Aug-20 08:00N 45°48' W 124°36'611.1
2017-Aug-20 07:30N 45°53' W 124°41'611.5
2017-Aug-20 07:00N 45°58' W 124°44'611.6
2017-Aug-20 06:30N 46°04' W 124°47'611.4
2017-Aug-20 06:00N 46°09' W 124°49'611.3
2017-Aug-20 05:30N 46°15' W 124°52'611.1
2017-Aug-20 05:00N 46°20' W 124°52'611.4
2017-Aug-20 04:30N 46°26' W 124°54'611.2
2017-Aug-20 04:00N 46°31' W 124°56'611.2
2017-Aug-20 03:30N 46°37' W 124°57'611.5
2017-Aug-20 03:00N 46°42' W 124°58'611.9
2017-Aug-20 02:30N 46°48' W 124°59'611.7
2017-Aug-20 02:00N 46°54' W 125°01'611.8
2017-Aug-20 01:30N 46°60' W 125°03'811.5
2017-Aug-20 00:48N 47°08' W 125°06'9211.3
2017-Aug-19 16:41N 48°37' W 125°38'210.7
2017-Aug-19 16:30N 48°38' W 125°39'5 9.5
2017-Aug-19 16:00N 48°43' W 125°36'3 6.4
2017-Aug-19 15:29N 48°44' W 125°31'1 1.2
2017-Aug-19 15:00N 48°43' W 125°30'1 0.5
2017-Aug-19 14:00N 48°43' W 125°31'4 7.4
2017-Aug-19 13:30N 48°43' W 125°37'4 7.3
2017-Aug-19 13:00N 48°45' W 125°42'1 2.3
2017-Aug-19 12:30N 48°45' W 125°40'6 9.9
2017-Aug-19 11:56N 48°45' W 125°32'410.0
2017-Aug-19 11:30N 48°45' W 125°25'5 9.1
2017-Aug-19 11:00N 48°45' W 125°18'5 9.2
2017-Aug-19 10:30N 48°46' W 125°25'5 9.7
2017-Aug-19 10:00N 48°46' W 125°32'5 9.9
2017-Aug-19 09:30N 48°46' W 125°40'5 9.3
2017-Aug-19 09:00N 48°48' W 125°47'5 9.8
2017-Aug-19 08:30N 48°48' W 125°39'510.1
2017-Aug-19 08:00N 48°48' W 125°31'4 8.0
2017-Aug-19 07:30N 48°49' W 125°25'5 9.8
2017-Aug-19 07:00N 48°49' W 125°33'510.2
2017-Aug-19 06:30N 48°49' W 125°41'510.0
2017-Aug-19 06:00N 48°49' W 125°48'2 3.2
2017-Aug-19 05:30N 48°51' W 125°48'5 9.6
2017-Aug-19 05:00N 48°51' W 125°41'5 9.4
2017-Aug-19 04:30N 48°51' W 125°34'2 4.6
2017-Aug-19 04:00N 48°52' W 125°31'510.5
2017-Aug-19 03:30N 48°52' W 125°39'510.4
2017-Aug-19 03:00N 48°52' W 125°47'510.3
2017-Aug-19 02:31N 48°52' W 125°55'611.5
2017-Aug-19 02:00N 48°56' W 126°02'611.5
2017-Aug-19 01:27N 49°00' W 126°09'511.4
2017-Aug-19 01:00N 49°04' W 126°15'1211.0
2017-Aug-18 23:57N 49°12' W 126°28'510.8
2017-Aug-18 23:30N 49°15' W 126°33'510.8
2017-Aug-18 23:00N 49°18' W 126°39'811.1
2017-Aug-18 22:16N 49°23' W 126°49'311.3
2017-Aug-18 22:00N 49°25' W 126°53'  

Dump ship's entire track history